Time;durP1;ratioP1;P1;durP2;ratioP2;P2;SDS_P1;SDS_P2;PMS_P1;PMS_P2;Temp;Humidity;BMP_temperature;BMP_pressure;BME280_temperature;BME280_humidity;BME280_pressure;Samples;Min_cycle;Max_cycle;Signal;HPM_P1;HPM_P2
2021/08/27 00:01:21;;;;;;;24.05;13.65;;;;;;;17.59;73.39;100068.03;5129944;27;20027;-64
2021/08/27 00:03:47;;;;;;;22.23;12.48;;;;;;;17.60;74.07;100067.03;5112280;27;20045;-62
2021/08/27 00:06:12;;;;;;;19.95;12.75;;;;;;;17.63;73.60;100067.56;5110291;28;20114;-61
2021/08/27 00:08:38;;;;;;;18.35;12.27;;;;;;;17.59;73.97;100058.03;5110216;28;20024;-62
2021/08/27 00:11:03;;;;;;;21.48;12.98;;;;;;;17.69;73.16;100068.75;5111145;28;20056;-64
2021/08/27 00:13:29;;;;;;;16.60;12.50;;;;;;;17.69;73.05;100062.50;5112440;28;20034;-61
2021/08/27 00:15:54;;;;;;;18.77;13.23;;;;;;;17.61;73.20;100061.47;5111599;28;20104;-61
2021/08/27 00:18:20;;;;;;;17.20;12.65;;;;;;;17.62;73.03;100068.56;5110988;28;20571;-61
2021/08/27 00:20:46;;;;;;;17.23;12.98;;;;;;;17.52;73.13;100067.00;5111613;28;20038;-62
2021/08/27 00:23:11;;;;;;;19.13;13.05;;;;;;;17.55;73.02;100078.34;5112669;28;20040;-60
2021/08/27 00:25:37;;;;;;;18.42;12.73;;;;;;;17.47;73.39;100067.50;5111054;28;20039;-61
2021/08/27 00:28:05;;;;;;;21.23;13.55;;;;;;;17.49;72.83;100070.88;5110474;28;20492;-63
2021/08/27 00:30:31;;;;;;;21.73;14.15;;;;;;;17.50;73.30;100080.69;5111325;28;20032;-61
2021/08/27 00:32:56;;;;;;;19.23;13.43;;;;;;;17.47;73.32;100070.19;5110876;28;20213;-60
2021/08/27 00:35:22;;;;;;;21.45;14.32;;;;;;;17.43;73.53;100069.66;5116448;27;20027;-61
2021/08/27 00:37:47;;;;;;;20.30;13.85;;;;;;;17.46;73.44;100068.50;5131851;27;20031;-61
2021/08/27 00:40:13;;;;;;;18.98;13.50;;;;;;;17.48;73.46;100071.88;5131786;27;20417;-61
2021/08/27 00:42:38;;;;;;;22.50;13.68;;;;;;;17.27;73.59;100037.97;5112770;28;20067;-61
2021/08/27 00:45:04;;;;;;;24.30;14.77;;;;;;;17.46;73.32;100074.75;5112239;28;20032;-61
2021/08/27 00:47:30;;;;;;;21.92;14.48;;;;;;;17.25;73.29;100040.00;5111265;28;20409;-61
2021/08/27 00:49:55;;;;;;;16.75;14.07;;;;;;;17.39;73.60;100062.06;5111242;28;20488;-61
2021/08/27 00:52:21;;;;;;;21.67;14.20;;;;;;;17.43;73.67;100068.84;5111440;28;20032;-67
2021/08/27 00:54:52;;;;;;;23.30;13.93;;;;;;;17.48;73.46;100077.31;5112868;28;20460;-61
2021/08/27 00:57:18;;;;;;;21.00;13.82;;;;;;;17.33;73.55;100058.13;5111435;28;20031;-62
2021/08/27 00:59:44;;;;;;;20.95;14.20;;;;;;;17.41;73.48;100065.44;5110894;28;20026;-61
2021/08/27 01:02:10;;;;;;;16.15;12.90;;;;;;;17.41;73.60;100073.56;5111172;28;20031;-61
2021/08/27 01:04:36;;;;;;;18.63;13.07;;;;;;;17.39;73.75;100070.16;5112469;28;20047;-61
2021/08/27 01:07:27;;;;;;;19.27;13.98;;;;;;;17.44;73.60;100065.94;5111063;28;20037;-60
2021/08/27 01:09:59;;;;;;;20.48;13.60;;;;;;;17.42;73.52;100061.72;5107937;28;20071;-62
2021/08/27 01:12:54;;;;;;;19.65;13.88;;;;;;;17.56;73.12;100069.19;5113855;28;20039;-61
2021/08/27 01:15:31;;;;;;;22.42;13.60;;;;;;;17.50;73.41;100070.72;5116311;27;20031;-61
2021/08/27 01:18:09;;;;;;;17.48;12.70;;;;;;;17.38;73.60;100054.94;5114922;28;20392;-61
2021/08/27 01:21:01;;;;;;;20.95;14.05;;;;;;;17.52;72.94;100072.41;5114210;28;20337;-61
2021/08/27 01:23:35;;;;;;;18.80;13.68;;;;;;;17.47;73.13;100068.31;5114941;28;20035;-62
2021/08/27 01:26:02;;;;;;;17.05;13.55;;;;;;;17.42;73.87;100067.13;5116045;27;20461;-62
2021/08/27 01:28:30;;;;;;;20.42;13.90;;;;;;;17.36;74.00;100069.50;5114806;28;20028;-62
2021/08/27 01:31:27;;;;;;;21.30;14.80;;;;;;;17.53;73.36;100063.28;5118383;28;20020;-63
2021/08/27 01:34:04;;;;;;;19.90;13.70;;;;;;;17.48;73.48;100072.75;5127007;28;20031;-59
2021/08/27 01:36:33;;;;;;;16.20;12.90;;;;;;;17.41;73.61;100066.28;5125950;27;20038;-61
2021/08/27 01:39:02;;;;;;;19.50;14.05;;;;;;;17.43;73.50;100072.38;5114861;27;20031;-62
2021/08/27 01:41:30;;;;;;;20.92;14.70;;;;;;;17.39;73.91;100065.59;5114128;28;20046;-61
2021/08/27 01:43:59;;;;;;;24.23;15.55;;;;;;;17.39;73.95;100075.59;5115058;28;20054;-62
2021/08/27 01:46:26;;;;;;;20.42;13.95;;;;;;;17.30;74.37;100067.41;5114655;27;20100;-63
2021/08/27 01:48:52;;;;;;;17.75;15.05;;;;;;;17.36;74.21;100074.03;5114909;27;20426;-61
2021/08/27 01:51:19;;;;;;;21.67;15.25;;;;;;;17.29;74.46;100073.81;5114426;28;20084;-62
2021/08/27 01:53:45;;;;;;;19.92;15.02;;;;;;;17.19;74.13;100046.06;5114410;28;20370;-61
2021/08/27 01:56:12;;;;;;;23.17;15.70;;;;;;;17.26;74.16;100067.91;5114356;28;20425;-61
2021/08/27 01:58:38;;;;;;;21.75;14.77;;;;;;;17.39;73.79;100075.59;5114826;27;20111;-62
2021/08/27 02:01:06;;;;;;;21.73;15.82;;;;;;;17.34;74.26;100084.19;5114025;28;20130;-62
2021/08/27 02:03:32;;;;;;;24.02;15.48;;;;;;;17.20;74.28;100070.22;5113921;28;20035;-62
2021/08/27 02:06:00;;;;;;;23.70;15.32;;;;;;;17.28;74.24;100080.25;5113605;28;20047;-62
2021/08/27 02:08:27;;;;;;;24.45;15.52;;;;;;;17.22;74.86;100081.75;5115136;27;20035;-63
2021/08/27 02:10:53;;;;;;;20.58;15.23;;;;;;;17.26;74.33;100082.28;5114138;28;20477;-61
2021/08/27 02:13:21;;;;;;;20.17;14.35;;;;;;;17.28;74.54;100072.13;5113687;28;20028;-62
2021/08/27 02:15:49;;;;;;;19.40;14.95;;;;;;;17.27;73.99;100070.44;5113650;28;20500;-60
2021/08/27 02:18:14;;;;;;;22.38;15.48;;;;;;;17.20;74.76;100066.69;5114984;27;20034;-61
2021/08/27 02:20:40;;;;;;;20.83;16.30;;;;;;;17.06;74.45;100036.50;5113209;28;20085;-61
2021/08/27 02:23:07;;;;;;;21.23;15.50;;;;;;;17.18;74.83;100072.25;5113646;28;20139;-61
2021/08/27 02:25:35;;;;;;;21.88;15.27;;;;;;;17.17;75.17;100091.38;5113767;28;20023;-61
2021/08/27 02:28:02;;;;;;;19.65;15.50;;;;;;;17.18;74.91;100083.06;5113207;28;20468;-61
2021/08/27 02:30:33;;;;;;;21.75;15.48;;;;;;;17.21;74.71;100092.75;5114601;27;20027;-61
2021/08/27 02:33:03;;;;;;;22.98;15.23;;;;;;;17.18;74.76;100083.06;5113923;28;20023;-62
2021/08/27 02:35:31;;;;;;;21.23;15.07;;;;;;;17.13;74.85;100084.59;5113404;28;20023;-63
2021/08/27 02:37:59;;;;;;;20.30;16.00;;;;;;;17.25;74.75;100093.28;5113568;28;20492;-66
2021/08/27 02:40:25;;;;;;;21.38;16.20;;;;;;;17.24;74.40;100097.81;5114592;27;20074;-61
2021/08/27 02:43:03;;;;;;;21.75;15.30;;;;;;;17.18;74.81;100101.19;5113243;27;20031;-60
2021/08/27 02:45:29;;;;;;;22.05;15.57;;;;;;;17.19;74.90;100097.47;5113109;28;20350;-62
2021/08/27 02:47:54;;;;;;;21.38;15.90;;;;;;;17.04;74.60;100076.41;5113015;28;20524;-63
2021/08/27 02:50:20;;;;;;;22.55;16.27;;;;;;;17.23;74.53;100093.41;5114423;27;20106;-61
2021/08/27 02:52:55;;;;;;;19.58;15.30;;;;;;;17.21;74.79;100098.16;5113347;28;20042;-61
2021/08/27 02:55:31;;;;;;;21.58;16.40;;;;;;;17.14;74.21;100075.47;5113023;28;20102;-60
2021/08/27 02:58:09;;;;;;;21.92;15.52;;;;;;;17.30;74.50;100102.59;5113536;28;20122;-62
2021/08/27 03:00:50;;;;;;;21.30;16.30;;;;;;;17.22;75.04;100099.84;5118999;27;20359;-60
2021/08/27 03:03:17;;;;;;;24.42;16.67;;;;;;;17.20;74.49;100105.41;5133502;27;20429;-60
2021/08/27 03:05:43;;;;;;;26.05;17.00;;;;;;;17.26;74.45;100106.63;5131877;27;20035;-62
2021/08/27 03:08:15;;;;;;;21.98;17.40;;;;;;;17.36;74.26;100111.94;5133365;27;20110;-61
2021/08/27 03:10:52;;;;;;;22.08;16.90;;;;;;;17.29;74.12;100106.31;5128888;27;20383;-61
2021/08/27 03:13:32;;;;;;;22.83;15.73;;;;;;;17.34;74.46;100113.94;5112698;28;20485;-61
2021/08/27 03:16:06;;;;;;;24.65;16.77;;;;;;;17.34;74.52;100120.19;5128997;27;20039;-60
2021/08/27 03:18:54;;;;;;;24.77;16.65;;;;;;;17.43;74.06;100125.66;5133415;27;20035;-61
2021/08/27 03:21:35;;;;;;;21.30;15.63;;;;;;;17.39;74.45;100116.19;5133527;27;20744;-61
2021/08/27 03:24:18;;;;;;;24.98;15.98;;;;;;;17.43;73.90;100112.97;5132877;27;20046;-62
2021/08/27 03:26:46;;;;;;;21.70;16.52;;;;;;;17.39;74.13;100127.84;5130862;27;20050;-62
2021/08/27 03:29:17;;;;;;;24.13;17.08;;;;;;;17.43;74.00;100131.91;5133136;27;20087;-61
2021/08/27 03:31:44;;;;;;;21.33;16.98;;;;;;;17.40;74.10;100129.53;5133467;27;20035;-61
2021/08/27 03:34:11;;;;;;;25.67;16.20;;;;;;;17.35;74.07;100127.31;5131849;27;20392;-59
2021/08/27 03:36:39;;;;;;;26.27;17.55;;;;;;;17.43;73.85;100131.09;5130859;27;20023;-60
2021/08/27 03:39:06;;;;;;;20.27;16.10;;;;;;;17.41;74.07;100136.63;5132948;27;20479;-61
2021/08/27 03:41:35;;;;;;;25.60;17.83;;;;;;;17.44;73.81;100135.47;5132442;27;20433;-62
2021/08/27 03:44:02;;;;;;;23.15;16.55;;;;;;;17.46;73.59;100138.88;5132622;27;20099;-60
2021/08/27 03:46:29;;;;;;;28.02;17.88;;;;;;;17.44;73.60;100132.78;5124225;27;20023;-61
2021/08/27 03:48:56;;;;;;;25.77;17.15;;;;;;;17.44;73.76;100140.91;5111645;27;20028;-61
2021/08/27 03:51:23;;;;;;;26.58;18.05;;;;;;;17.46;73.31;100133.47;5112549;28;20035;-61
2021/08/27 03:53:49;;;;;;;26.15;18.17;;;;;;;17.53;72.89;100141.78;5111971;28;20106;-61
2021/08/27 03:56:16;;;;;;;25.65;18.83;;;;;;;17.52;72.51;100138.22;5113252;27;20094;-60
2021/08/27 03:58:43;;;;;;;34.33;18.42;;;;;;;17.54;72.62;100146.19;5112253;28;20084;-61
2021/08/27 04:01:09;;;;;;;24.42;18.65;;;;;;;17.51;72.75;100147.34;5111491;28;20334;-62
2021/08/27 04:03:35;;;;;;;23.98;18.90;;;;;;;17.41;72.22;100131.22;5112060;28;20080;-62
2021/08/27 04:06:09;;;;;;;28.33;20.05;;;;;;;17.63;71.58;100156.91;5111911;28;20074;-61
2021/08/27 04:08:40;;;;;;;26.85;20.67;;;;;;;17.70;71.32;100162.50;5129271;27;20023;-61
2021/08/27 04:11:06;;;;;;;28.50;21.67;;;;;;;17.74;70.86;100168.44;5131223;27;20491;-61
2021/08/27 04:13:33;;;;;;;30.05;20.65;;;;;;;17.63;71.27;100166.88;5132558;27;20027;-61
2021/08/27 04:15:58;;;;;;;29.77;21.70;;;;;;;17.71;71.09;100176.91;5132110;27;20042;-61
2021/08/27 04:18:24;;;;;;;29.80;22.80;;;;;;;17.77;70.50;100168.97;5119015;27;20380;-60
2021/08/27 04:20:50;;;;;;;30.13;23.65;;;;;;;17.77;69.63;100162.69;5111472;28;20035;-61
2021/08/27 04:23:15;;;;;;;35.67;25.52;;;;;;;17.81;70.13;100150.53;5111330;28;20442;-60
2021/08/27 04:25:41;;;;;;;36.95;26.65;;;;;;;17.86;69.89;100161.75;5111492;28;20043;-62
2021/08/27 04:28:06;;;;;;;37.55;25.17;;;;;;;17.94;69.35;100169.03;5111739;28;20064;-62
2021/08/27 04:30:33;;;;;;;34.80;25.80;;;;;;;17.89;69.47;100153.28;5111520;28;20032;-61
2021/08/27 04:32:59;;;;;;;34.80;25.45;;;;;;;18.03;69.12;100150.97;5111954;28;20027;-60
2021/08/27 04:35:24;;;;;;;39.72;27.10;;;;;;;18.22;68.55;100177.78;5110045;28;20473;-62
2021/08/27 04:37:50;;;;;;;39.63;28.20;;;;;;;18.32;67.97;100161.38;5111850;28;20035;-60
2021/08/27 04:40:15;;;;;;;41.33;26.60;;;;;;;18.37;67.87;100155.47;5112038;27;20035;-60
2021/08/27 04:42:41;;;;;;;38.05;26.63;;;;;;;18.48;67.55;100162.44;5111147;28;20032;-60
2021/08/27 04:45:07;;;;;;;39.78;29.40;;;;;;;18.62;66.82;100174.47;5114100;28;20407;-61
2021/08/27 04:47:33;;;;;;;40.60;30.40;;;;;;;18.61;66.43;100149.22;5115852;28;20507;-61
2021/08/27 04:49:58;;;;;;;48.60;30.58;;;;;;;18.66;66.59;100156.84;5116496;27;20032;-61
2021/08/27 04:52:24;;;;;;;45.33;31.25;;;;;;;18.70;66.14;100157.38;5115288;27;20043;-59
2021/08/27 04:54:49;;;;;;;48.42;32.28;;;;;;;18.75;66.13;100161.25;5115893;28;20023;-60
2021/08/27 04:57:15;;;;;;;45.53;31.95;;;;;;;18.74;66.00;100173.13;5115375;28;20028;-61
2021/08/27 04:59:45;;;;;;;48.03;34.88;;;;;;;18.84;65.04;100170.25;5116379;27;20050;-60
2021/08/27 05:02:11;;;;;;;50.58;35.25;;;;;;;18.87;65.12;100178.03;5114812;28;20070;-61
2021/08/27 05:04:36;;;;;;;54.55;36.22;;;;;;;18.79;65.06;100170.75;5113958;28;20055;-62
2021/08/27 05:07:02;;;;;;;46.08;33.70;;;;;;;18.80;65.30;100169.72;5115484;28;20023;-62
2021/08/27 05:09:27;;;;;;;47.58;34.53;;;;;;;19.02;64.08;100171.97;5116201;27;20100;-62
2021/08/27 05:11:53;;;;;;;50.38;36.65;;;;;;;18.98;64.63;100160.59;5114953;27;20038;-62
2021/08/27 05:14:18;;;;;;;52.22;36.38;;;;;;;19.16;64.04;100154.13;5115373;28;20110;-62
2021/08/27 05:16:43;;;;;;;44.50;32.83;;;;;;;19.25;63.26;100147.66;5115427;28;20066;-62
2021/08/27 05:19:09;;;;;;;51.20;36.92;;;;;;;19.57;62.52;100169.47;5120555;27;20027;-62
2021/08/27 05:21:36;;;;;;;51.60;35.00;;;;;;;19.76;61.51;100157.34;5135639;27;20115;-60
2021/08/27 05:24:02;;;;;;;48.30;36.28;;;;;;;19.98;60.13;100169.34;5136022;27;20031;-62
2021/08/27 05:26:29;;;;;;;49.97;35.80;;;;;;;20.08;59.76;100172.69;5134315;27;20031;-62
2021/08/27 05:28:54;;;;;;;52.95;37.28;;;;;;;20.37;58.69;100178.50;5135370;27;20429;-63
2021/08/27 05:31:20;;;;;;;52.58;37.38;;;;;;;20.92;57.53;100187.47;5135518;27;20031;-62
2021/08/27 05:33:45;;;;;;;48.00;35.92;;;;;;;21.37;55.29;100133.09;5134349;27;20030;-62
2021/08/27 05:36:11;;;;;;;49.65;36.33;;;;;;;22.13;53.35;100180.22;5134240;27;20421;-61
2021/08/27 05:38:36;;;;;;;49.25;36.30;;;;;;;22.56;51.63;100182.22;5135850;27;20076;-61
2021/08/27 05:41:03;;;;;;;47.65;35.30;;;;;;;23.02;50.11;100189.13;5135563;27;20461;-62
2021/08/27 05:43:29;;;;;;;46.42;35.05;;;;;;;23.34;48.57;100192.34;5135137;27;20035;-61
2021/08/27 05:45:54;;;;;;;47.50;37.45;;;;;;;23.61;47.50;100178.84;5134787;27;20035;-62
2021/08/27 05:48:20;;;;;;;50.80;38.70;;;;;;;23.55;47.62;100182.38;5134719;27;20035;-61
2021/08/27 05:50:47;;;;;;;44.40;35.83;;;;;;;23.72;47.47;100198.47;5133375;27;20480;-61
2021/08/27 05:53:12;;;;;;;49.97;40.22;;;;;;;23.73;47.08;100211.09;5135179;27;20035;-61
2021/08/27 05:55:38;;;;;;;53.47;37.85;;;;;;;23.51;46.89;100175.66;5134048;27;20088;-68
2021/08/27 05:58:03;;;;;;;52.60;41.35;;;;;;;23.32;47.77;100190.88;5134675;27;20037;-60
2021/08/27 06:00:29;;;;;;;52.22;39.50;;;;;;;23.23;48.34;100201.06;5134530;27;20030;-61
2021/08/27 06:02:54;;;;;;;56.80;43.17;;;;;;;23.16;48.22;100194.72;5134524;27;20139;-65
2021/08/27 06:05:21;;;;;;;54.72;43.17;;;;;;;22.99;48.95;100213.25;5133186;27;20048;-62
2021/08/27 06:07:46;;;;;;;56.40;43.75;;;;;;;22.70;49.32;100212.34;5134771;27;20023;-62
2021/08/27 06:10:12;;;;;;;62.25;45.97;;;;;;;23.05;48.91;100196.09;5134038;27;20399;-62
2021/08/27 06:12:41;;;;;;;59.78;43.42;;;;;;;23.55;47.71;100200.69;5134364;27;20468;-63
2021/08/27 06:15:08;;;;;;;57.13;41.47;;;;;;;24.13;46.61;100189.47;5134773;27;20118;-65
2021/08/27 06:17:33;;;;;;;54.85;43.55;;;;;;;24.44;45.57;100188.06;5132481;27;20031;-65
2021/08/27 06:19:59;;;;;;;53.78;42.38;;;;;;;24.51;44.75;100199.88;5131758;27;20030;-66
2021/08/27 06:22:27;;;;;;;55.05;44.03;;;;;;;24.28;45.06;100186.56;5130856;27;20110;-66
2021/08/27 06:24:53;;;;;;;60.17;45.78;;;;;;;23.78;46.28;100203.13;5130848;27;20091;-66
2021/08/27 06:27:18;;;;;;;57.55;43.80;;;;;;;23.40;47.33;100209.84;5136085;27;20137;-66
2021/08/27 06:29:44;;;;;;;55.38;43.28;;;;;;;23.09;48.50;100217.34;5139265;27;20038;-64
2021/08/27 06:32:10;;;;;;;61.22;47.10;;;;;;;23.18;48.31;100198.91;5137433;27;20524;-64
2021/08/27 06:34:35;;;;;;;59.88;45.95;;;;;;;23.55;47.65;100207.00;5134060;27;20023;-64
2021/08/27 06:37:01;;;;;;;61.58;45.03;;;;;;;23.82;46.53;100215.34;5133377;27;20034;-64
2021/08/27 06:39:26;;;;;;;55.13;44.88;;;;;;;24.56;44.90;100206.59;5133771;27;20023;-63
2021/08/27 06:41:52;;;;;;;57.45;43.85;;;;;;;25.04;43.30;100206.50;5133618;27;20065;-63
2021/08/27 06:44:18;;;;;;;59.97;44.97;;;;;;;24.93;43.96;100196.19;5133335;27;20403;-63
2021/08/27 06:46:44;;;;;;;56.65;44.85;;;;;;;24.60;43.99;100206.00;5133474;27;20041;-63
2021/08/27 06:49:11;;;;;;;60.17;45.13;;;;;;;24.07;45.37;100203.94;5134043;27;20027;-64
2021/08/27 06:51:37;;;;;;;59.78;45.63;;;;;;;23.72;46.44;100209.41;5133489;27;20380;-64
2021/08/27 06:54:03;;;;;;;54.72;43.95;;;;;;;23.32;47.21;100213.56;5133255;27;20023;-62
2021/08/27 06:56:28;;;;;;;59.53;45.30;;;;;;;23.30;48.04;100212.91;5132794;27;20056;-61
2021/08/27 06:58:55;;;;;;;62.22;44.85;;;;;;;23.44;46.96;100197.47;5133290;27;20027;-63
2021/08/27 07:01:20;;;;;;;55.03;42.45;;;;;;;24.01;45.69;100191.94;5133458;27;20027;-62
2021/08/27 07:03:46;;;;;;;57.75;46.10;;;;;;;24.45;44.23;100202.59;5132838;27;20410;-63
2021/08/27 07:06:12;;;;;;;61.47;44.13;;;;;;;24.46;44.58;100212.47;5133109;27;20026;-63
2021/08/27 07:08:37;;;;;;;58.13;43.95;;;;;;;24.63;44.04;100219.25;5132884;27;20114;-66
2021/08/27 07:11:03;;;;;;;58.63;46.42;;;;;;;24.74;43.27;100212.34;5133513;27;20444;-64
2021/08/27 07:13:28;;;;;;;56.72;44.15;;;;;;;25.17;43.21;100215.78;5131808;27;20471;-63
2021/08/27 07:15:55;;;;;;;63.10;44.97;;;;;;;25.86;41.21;100208.09;5132221;27;20383;-63
2021/08/27 07:18:21;;;;;;;55.03;42.38;;;;;;;27.15;38.37;100203.63;5131342;27;20399;-62
2021/08/27 07:20:47;;;;;;;59.88;42.92;;;;;;;28.72;35.24;100207.97;5133176;27;20035;-62
2021/08/27 07:23:14;;;;;;;51.10;41.80;;;;;;;29.26;33.60;100209.03;5133015;27;20035;-63
2021/08/27 07:25:40;;;;;;;57.53;42.42;;;;;;;28.45;34.87;100213.84;5132599;27;20027;-64
2021/08/27 07:28:05;;;;;;;59.80;42.95;;;;;;;27.73;36.36;100209.00;5132342;27;20361;-65
2021/08/27 07:30:31;;;;;;;50.60;40.45;;;;;;;26.94;37.01;100196.59;5133204;27;20042;-63
2021/08/27 07:32:56;;;;;;;54.00;40.35;;;;;;;26.53;38.33;100207.00;5131304;27;20035;-66
2021/08/27 07:35:22;;;;;;;54.97;42.30;;;;;;;26.47;38.82;100225.16;5132363;27;20051;-65
2021/08/27 07:37:47;;;;;;;48.78;39.92;;;;;;;26.61;38.36;100225.09;5130908;27;20035;-63
2021/08/27 07:40:15;;;;;;;50.72;38.58;;;;;;;26.78;38.57;100226.28;5131183;27;20092;-63
2021/08/27 07:42:41;;;;;;;49.70;38.95;;;;;;;26.82;38.54;100212.91;5132707;27;20464;-63
2021/08/27 07:45:07;;;;;;;48.17;38.00;;;;;;;26.91;37.52;100225.38;5131333;27;20034;-64
2021/08/27 07:47:33;;;;;;;48.85;39.75;;;;;;;26.34;38.79;100222.50;5130037;27;20645;-63
2021/08/27 07:49:59;;;;;;;54.78;42.28;;;;;;;25.89;39.54;100193.97;5128839;27;20109;-64
2021/08/27 07:52:24;;;;;;;54.75;40.17;;;;;;;25.82;40.39;100211.50;5128663;27;20096;-64
2021/08/27 07:54:49;;;;;;;51.30;41.58;;;;;;;26.27;39.31;100232.66;5130536;27;20121;-65
2021/08/27 07:57:15;;;;;;;50.15;40.75;;;;;;;26.48;38.95;100232.34;5130105;27;20023;-65
2021/08/27 07:59:40;;;;;;;52.70;42.08;;;;;;;26.71;38.64;100227.38;5128964;27;20456;-62
2021/08/27 08:02:06;;;;;;;51.47;41.05;;;;;;;26.73;38.16;100228.81;5130649;27;20031;-63
2021/08/27 08:04:32;;;;;;;52.53;40.88;;;;;;;26.73;38.45;100234.31;5132121;27;20038;-60
2021/08/27 08:06:57;;;;;;;53.58;41.70;;;;;;;26.30;39.55;100235.00;5131873;27;20027;-63
2021/08/27 08:09:23;;;;;;;55.20;43.95;;;;;;;25.81;40.33;100229.88;5131988;27;20054;-64
2021/08/27 08:11:48;;;;;;;50.53;40.95;;;;;;;25.59;41.33;100230.13;5130546;27;20095;-63
2021/08/27 08:14:14;;;;;;;54.33;40.30;;;;;;;25.57;40.99;100237.72;5132007;27;20035;-63
2021/08/27 08:16:39;;;;;;;55.63;40.25;;;;;;;25.24;41.96;100233.06;5130358;27;20065;-66
2021/08/27 08:19:05;;;;;;;48.45;39.38;;;;;;;25.08;42.38;100237.91;5131796;27;20038;-69
2021/08/27 08:21:31;;;;;;;53.03;40.88;;;;;;;24.63;43.25;100234.88;5132312;27;20055;-64
2021/08/27 08:23:56;;;;;;;48.00;40.33;;;;;;;24.36;44.00;100226.56;5131989;27;20399;-64
2021/08/27 08:26:23;;;;;;;58.45;39.13;;;;;;;24.28;44.27;100216.66;5131661;27;20031;-62
2021/08/27 08:28:50;;;;;;;55.13;39.20;;;;;;;24.49;43.71;100232.06;5132238;27;20023;-64
2021/08/27 08:31:19;;;;;;;45.53;36.83;;;;;;;24.55;44.19;100232.28;5130593;28;20029;-63
2021/08/27 08:33:46;;;;;;;46.95;37.15;;;;;;;24.86;43.65;100229.03;5131876;27;20028;-63
2021/08/27 08:36:12;;;;;;;46.85;36.92;;;;;;;24.94;42.03;100186.91;5113601;28;20501;-64
2021/08/27 08:38:38;;;;;;;43.80;35.38;;;;;;;25.32;41.77;100224.63;5130947;28;20084;-64
2021/08/27 08:41:04;;;;;;;42.35;34.30;;;;;;;25.60;40.61;100234.53;5131856;27;20034;-65
2021/08/27 08:43:30;;;;;;;46.97;32.50;;;;;;;26.06;40.20;100234.63;5131395;27;20352;-64
2021/08/27 08:45:56;;;;;;;46.60;33.92;;;;;;;26.37;39.43;100238.53;5130894;28;20031;-63
2021/08/27 08:48:23;;;;;;;41.75;33.00;;;;;;;26.55;39.16;100235.06;5131348;27;20027;-64
2021/08/27 08:50:50;;;;;;;40.00;31.55;;;;;;;26.44;38.14;100242.09;5130922;27;20537;-64
2021/08/27 08:53:18;;;;;;;39.70;31.33;;;;;;;26.14;38.17;100209.69;5131739;27;20019;-63
2021/08/27 08:55:44;;;;;;;42.45;30.67;;;;;;;26.03;38.18;100226.81;5132333;27;20027;-64
2021/08/27 08:58:09;;;;;;;40.22;31.73;;;;;;;25.90;38.95;100231.31;5128332;27;20548;-64
2021/08/27 09:00:37;;;;;;;39.88;29.60;;;;;;;25.79;38.94;100240.19;5131327;27;20031;-64
2021/08/27 09:03:04;;;;;;;36.90;29.00;;;;;;;25.46;39.87;100238.31;5130628;27;20027;-64
2021/08/27 09:05:30;;;;;;;40.78;30.83;;;;;;;25.46;40.03;100224.59;5115947;27;20463;-64
2021/08/27 09:07:56;;;;;;;37.90;28.95;;;;;;;25.54;39.77;100254.56;5111053;28;20028;-65
2021/08/27 09:10:22;;;;;;;40.00;28.90;;;;;;;25.31;39.69;100239.38;5109170;28;20532;-63
2021/08/27 09:12:49;;;;;;;37.65;29.73;;;;;;;25.03;40.34;100221.25;5110936;28;20034;-63
2021/08/27 09:15:17;;;;;;;45.30;28.55;;;;;;;24.99;41.24;100228.19;5111207;28;20046;-63
2021/08/27 09:17:48;;;;;;;37.60;30.38;;;;;;;24.93;41.10;100240.00;5108942;28;20473;-64
2021/08/27 09:20:15;;;;;;;40.15;29.08;;;;;;;24.89;40.96;100214.09;5108708;28;20036;-65
2021/08/27 09:22:56;;;;;;;38.95;29.83;;;;;;;25.11;40.71;100224.84;5110370;28;20055;-64
2021/08/27 09:25:36;;;;;;;41.30;29.85;;;;;;;25.14;40.70;100219.78;5110023;28;20040;-64
2021/08/27 09:28:09;;;;;;;35.17;28.25;;;;;;;24.95;40.94;100226.94;5119630;28;20079;-64
2021/08/27 09:30:46;;;;;;;40.45;27.05;;;;;;;24.98;41.01;100215.56;5110799;28;20036;-65
2021/08/27 09:33:16;;;;;;;39.75;27.35;;;;;;;24.79;40.85;100201.63;5114193;28;20036;-64
2021/08/27 09:35:53;;;;;;;36.10;26.70;;;;;;;25.14;40.59;100208.81;5114045;28;20032;-66
2021/08/27 09:38:19;;;;;;;29.77;23.50;;;;;;;25.05;39.73;100224.59;5113119;28;20024;-65
2021/08/27 09:40:48;;;;;;;31.58;24.52;;;;;;;24.89;39.85;100197.66;5114241;28;20030;-64
2021/08/27 09:43:22;;;;;;;34.20;23.20;;;;;;;24.93;40.04;100220.81;5113541;28;20077;-66
2021/08/27 09:45:48;;;;;;;29.23;21.73;;;;;;;24.71;39.12;100214.63;5114173;28;20115;-64
2021/08/27 09:48:13;;;;;;;28.70;22.42;;;;;;;24.49;39.77;100221.13;5113444;28;20115;-65
2021/08/27 09:50:43;;;;;;;30.08;21.85;;;;;;;24.35;40.72;100233.06;5113936;27;20056;-64
2021/08/27 09:53:11;;;;;;;29.38;19.48;;;;;;;24.59;39.06;100204.31;5117768;27;20490;-65
2021/08/27 09:55:38;;;;;;;27.15;20.55;;;;;;;24.32;40.11;100209.72;5134855;27;20079;-65
2021/08/27 09:58:10;;;;;;;29.17;21.40;;;;;;;24.33;40.56;100205.06;5117104;27;20028;-66
2021/08/27 10:00:43;;;;;;;27.20;19.00;;;;;;;24.32;40.71;100203.38;5113636;28;20122;-65
2021/08/27 10:03:20;;;;;;;24.40;18.63;;;;;;;24.55;40.16;100197.56;5113796;28;20469;-65
2021/08/27 10:05:50;;;;;;;28.02;18.55;;;;;;;24.69;39.27;100209.38;5113753;28;20472;-63
2021/08/27 10:08:21;;;;;;;22.52;16.83;;;;;;;24.76;38.85;100198.47;5113626;28;20103;-64
2021/08/27 10:11:13;;;;;;;27.90;18.13;;;;;;;24.72;39.12;100208.13;5113840;28;20410;-64
2021/08/27 10:13:40;;;;;;;21.40;16.85;;;;;;;24.67;38.72;100195.06;5125322;27;20459;-64
2021/08/27 10:16:05;;;;;;;24.20;18.27;;;;;;;24.63;39.59;100199.28;5132192;27;20119;-65
2021/08/27 10:18:32;;;;;;;24.83;17.90;;;;;;;24.69;39.56;100201.19;5124260;27;20476;-63
2021/08/27 10:20:58;;;;;;;25.00;17.60;;;;;;;24.73;39.18;100207.09;5113391;28;20100;-63
2021/08/27 10:23:24;;;;;;;22.52;17.85;;;;;;;24.79;39.30;100209.84;5113404;28;20036;-64
2021/08/27 10:25:51;;;;;;;26.10;18.38;;;;;;;24.77;38.54;100195.53;5112016;28;20032;-65
2021/08/27 10:28:16;;;;;;;25.58;17.25;;;;;;;24.79;39.32;100209.84;5130880;27;20484;-64
2021/08/27 10:30:48;;;;;;;23.00;17.85;;;;;;;24.76;39.26;100204.78;5133912;27;20168;-64
2021/08/27 10:33:40;;;;;;;22.92;17.55;;;;;;;24.94;39.68;100211.56;5133997;27;20488;-63
2021/08/27 10:36:20;;;;;;;26.40;18.45;;;;;;;25.05;38.90;100210.91;5114538;27;20084;-66
2021/08/27 10:38:48;;;;;;;23.27;16.48;;;;;;;24.75;38.74;100175.72;5112783;28;20500;-66
2021/08/27 10:41:17;;;;;;;22.45;15.70;;;;;;;25.04;39.00;100211.97;5113494;28;20032;-64
2021/08/27 10:43:49;;;;;;;20.83;15.23;;;;;;;25.13;38.79;100189.88;5112314;28;20032;-66
2021/08/27 10:46:15;;;;;;;22.58;16.20;;;;;;;24.94;38.60;100181.44;5112241;27;20543;-63
2021/08/27 10:48:49;;;;;;;21.08;15.65;;;;;;;25.14;38.39;100205.25;5118290;27;20024;-65
2021/08/27 10:51:36;;;;;;;19.67;15.07;;;;;;;25.22;37.37;100172.16;5122310;27;20039;-62
2021/08/27 10:54:03;;;;;;;27.88;15.48;;;;;;;25.18;36.97;100201.84;5111210;27;20031;-64
2021/08/27 10:56:50;;;;;;;22.00;16.38;;;;;;;24.98;37.71;100190.06;5109470;28;20032;-64
2021/08/27 10:59:37;;;;;;;24.42;16.40;;;;;;;24.87;37.93;100197.03;5113012;28;20034;-64
2021/08/27 11:02:04;;;;;;;22.45;15.15;;;;;;;24.77;37.40;100202.91;5113073;28;20092;-63
2021/08/27 11:04:39;;;;;;;21.85;15.55;;;;;;;24.69;37.55;100198.44;5112607;28;20492;-64
2021/08/27 11:07:26;;;;;;;23.15;16.23;;;;;;;24.85;37.72;100201.88;5093075;28;20035;-64
2021/08/27 11:10:07;;;;;;;24.88;15.25;;;;;;;24.79;38.02;100212.56;5112992;28;20028;-65
2021/08/27 11:12:33;;;;;;;24.13;15.10;;;;;;;24.71;38.13;100210.03;5113319;28;20028;-65
2021/08/27 11:15:29;;;;;;;24.95;15.45;;;;;;;24.91;37.91;100201.03;5112573;28;20406;-64